sensor_id;sensor_type;location;lat;lon;timestamp;pressure;altitude;pressure_sealevel;temperature;humidity
5753;BME280;2901;42.140;24.760;2022-12-18T00:01:13;100014.41;;;11.32;100.00
5753;BME280;2901;42.140;24.760;2022-12-18T00:03:38;100007.47;;;11.34;100.00
5753;BME280;2901;42.140;24.760;2022-12-18T00:06:04;99997.09;;;11.34;100.00
5753;BME280;2901;42.140;24.760;2022-12-18T00:08:29;99999.72;;;11.35;100.00
5753;BME280;2901;42.140;24.760;2022-12-18T00:10:55;100015.25;;;11.31;100.00
5753;BME280;2901;42.140;24.760;2022-12-18T00:13:20;100024.78;;;11.23;100.00
5753;BME280;2901;42.140;24.760;2022-12-18T00:15:45;100039.47;;;11.19;100.00
5753;BME280;2901;42.140;24.760;2022-12-18T00:18:11;100049.00;;;11.16;100.00
5753;BME280;2901;42.140;24.760;2022-12-18T00:20:37;100058.50;;;11.12;100.00
5753;BME280;2901;42.140;24.760;2022-12-18T00:23:03;100073.16;;;11.07;100.00
5753;BME280;2901;42.140;24.760;2022-12-18T00:25:29;100071.41;;;11.03;100.00
5753;BME280;2901;42.140;24.760;2022-12-18T00:27:54;100067.09;;;11.01;100.00
5753;BME280;2901;42.140;24.760;2022-12-18T00:30:20;100068.84;;;10.99;100.00
5753;BME280;2901;42.140;24.760;2022-12-18T00:32:45;100073.16;;;11.01;100.00
5753;BME280;2901;42.140;24.760;2022-12-18T00:35:10;100066.25;;;11.02;100.00
5753;BME280;2901;42.140;24.760;2022-12-18T00:37:36;100069.69;;;11.01;100.00
5753;BME280;2901;42.140;24.760;2022-12-18T00:40:02;100085.25;;;11.07;100.00
5753;BME280;2901;42.140;24.760;2022-12-18T00:42:28;100087.00;;;11.09;100.00
5753;BME280;2901;42.140;24.760;2022-12-18T00:45:12;100092.19;;;11.06;100.00
5753;BME280;2901;42.140;24.760;2022-12-18T00:47:37;100099.97;;;11.09;100.00
5753;BME280;2901;42.140;24.760;2022-12-18T00:50:03;100096.47;;;11.04;100.00
5753;BME280;2901;42.140;24.760;2022-12-18T00:52:29;100107.69;;;11.00;100.00
5753;BME280;2901;42.140;24.760;2022-12-18T00:54:54;100113.78;;;11.08;100.00
5753;BME280;2901;42.140;24.760;2022-12-18T00:57:19;100108.59;;;11.05;100.00
5753;BME280;2901;42.140;24.760;2022-12-18T00:59:45;100107.72;;;10.96;100.00
5753;BME280;2901;42.140;24.760;2022-12-18T01:02:13;100110.28;;;10.88;100.00
5753;BME280;2901;42.140;24.760;2022-12-18T01:04:38;100096.47;;;10.80;100.00
5753;BME280;2901;42.140;24.760;2022-12-18T01:07:04;100115.44;;;10.85;100.00
5753;BME280;2901;42.140;24.760;2022-12-18T01:09:29;100107.69;;;10.82;100.00
5753;BME280;2901;42.140;24.760;2022-12-18T01:11:55;100108.50;;;10.75;100.00
5753;BME280;2901;42.140;24.760;2022-12-18T01:14:20;100111.94;;;10.68;100.00
5753;BME280;2901;42.140;24.760;2022-12-18T01:16:45;100110.25;;;10.67;100.00
5753;BME280;2901;42.140;24.760;2022-12-18T01:19:11;100106.75;;;10.68;100.00
5753;BME280;2901;42.140;24.760;2022-12-18T01:21:36;100101.59;;;10.71;100.00
5753;BME280;2901;42.140;24.760;2022-12-18T01:24:01;100101.59;;;10.74;100.00
5753;BME280;2901;42.140;24.760;2022-12-18T01:26:27;100106.81;;;10.75;100.00
5753;BME280;2901;42.140;24.760;2022-12-18T01:28:55;100105.03;;;10.68;100.00
5753;BME280;2901;42.140;24.760;2022-12-18T01:31:24;100104.16;;;10.65;100.00
5753;BME280;2901;42.140;24.760;2022-12-18T01:33:50;100098.94;;;10.54;100.00
5753;BME280;2901;42.140;24.760;2022-12-18T01:36:25;100102.44;;;10.53;100.00
5753;BME280;2901;42.140;24.760;2022-12-18T01:38:51;100097.25;;;10.53;100.00
5753;BME280;2901;42.140;24.760;2022-12-18T01:41:20;100105.00;;;10.55;100.00
5753;BME280;2901;42.140;24.760;2022-12-18T01:43:52;100101.53;;;10.54;100.00
5753;BME280;2901;42.140;24.760;2022-12-18T01:46:19;100099.81;;;10.58;100.00
5753;BME280;2901;42.140;24.760;2022-12-18T01:48:48;100103.28;;;10.61;100.00
5753;BME280;2901;42.140;24.760;2022-12-18T01:51:14;100090.31;;;10.49;100.00
5753;BME280;2901;42.140;24.760;2022-12-18T01:53:41;100098.97;;;10.50;100.00
5753;BME280;2901;42.140;24.760;2022-12-18T01:56:12;100099.81;;;10.46;100.00
5753;BME280;2901;42.140;24.760;2022-12-18T01:58:54;100092.91;;;10.46;100.00
5753;BME280;2901;42.140;24.760;2022-12-18T02:01:23;100101.53;;;10.51;100.00
5753;BME280;2901;42.140;24.760;2022-12-18T02:03:49;100110.19;;;10.55;100.00
5753;BME280;2901;42.140;24.760;2022-12-18T02:06:31;100103.31;;;10.57;100.00
5753;BME280;2901;42.140;24.760;2022-12-18T02:09:06;100093.78;;;10.53;100.00
5753;BME280;2901;42.140;24.760;2022-12-18T02:14:28;100118.84;;;10.66;100.00
5753;BME280;2901;42.140;24.760;2022-12-18T02:17:03;100112.81;;;10.68;100.00
5753;BME280;2901;42.140;24.760;2022-12-18T02:20:02;100112.81;;;10.74;100.00
5753;BME280;2901;42.140;24.760;2022-12-18T02:25:22;100126.69;;;10.90;100.00
5753;BME280;2901;42.140;24.760;2022-12-18T02:27:52;100129.25;;;10.90;100.00
5753;BME280;2901;42.140;24.760;2022-12-18T02:30:18;100134.50;;;10.99;100.00
5753;BME280;2901;42.140;24.760;2022-12-18T02:32:50;100136.19;;;11.00;100.00
5753;BME280;2901;42.140;24.760;2022-12-18T02:35:22;100124.97;;;11.01;100.00
5753;BME280;2901;42.140;24.760;2022-12-18T02:37:49;100126.72;;;11.01;100.00
5753;BME280;2901;42.140;24.760;2022-12-18T02:40:17;100118.09;;;11.09;100.00
5753;BME280;2901;42.140;24.760;2022-12-18T02:42:43;100125.88;;;11.09;100.00
5753;BME280;2901;42.140;24.760;2022-12-18T02:45:09;100113.78;;;11.08;100.00
5753;BME280;2901;42.140;24.760;2022-12-18T02:47:38;100123.25;;;11.11;100.00
5753;BME280;2901;42.140;24.760;2022-12-18T02:50:07;100125.88;;;11.12;100.00
5753;BME280;2901;42.140;24.760;2022-12-18T02:55:05;100125.84;;;11.08;100.00
5753;BME280;2901;42.140;24.760;2022-12-18T03:00:21;100132.75;;;11.10;100.00
5753;BME280;2901;42.140;24.760;2022-12-18T03:02:59;100136.19;;;11.03;100.00
5753;BME280;2901;42.140;24.760;2022-12-18T03:05:36;100131.03;;;11.02;100.00
5753;BME280;2901;42.140;24.760;2022-12-18T03:10:38;100139.66;;;10.93;100.00
5753;BME280;2901;42.140;24.760;2022-12-18T03:13:11;100136.19;;;10.97;100.00
5753;BME280;2901;42.140;24.760;2022-12-18T03:15:42;100138.78;;;11.00;100.00
5753;BME280;2901;42.140;24.760;2022-12-18T03:18:32;100138.78;;;11.00;100.00
5753;BME280;2901;42.140;24.760;2022-12-18T03:21:01;100144.84;;;10.99;100.00
5753;BME280;2901;42.140;24.760;2022-12-18T03:23:34;100145.72;;;11.01;100.00
5753;BME280;2901;42.140;24.760;2022-12-18T03:26:04;100149.16;;;11.00;100.00
5753;BME280;2901;42.140;24.760;2022-12-18T03:28:35;100148.31;;;10.98;100.00
5753;BME280;2901;42.140;24.760;2022-12-18T03:31:03;100151.75;;;10.94;100.00
5753;BME280;2901;42.140;24.760;2022-12-18T03:33:36;100155.16;;;10.87;100.00
5753;BME280;2901;42.140;24.760;2022-12-18T03:36:03;100156.03;;;10.83;100.00
5753;BME280;2901;42.140;24.760;2022-12-18T03:38:29;100160.38;;;10.88;100.00
5753;BME280;2901;42.140;24.760;2022-12-18T03:46:10;100176.78;;;10.87;100.00
5753;BME280;2901;42.140;24.760;2022-12-18T03:48:46;100175.88;;;10.84;100.00
5753;BME280;2901;42.140;24.760;2022-12-18T03:53:55;100193.19;;;10.89;100.00
5753;BME280;2901;42.140;24.760;2022-12-18T03:56:25;100190.63;;;10.92;100.00
5753;BME280;2901;42.140;24.760;2022-12-18T03:58:52;100196.69;;;10.99;100.00
5753;BME280;2901;42.140;24.760;2022-12-18T04:01:23;100201.88;;;10.99;100.00
5753;BME280;2901;42.140;24.760;2022-12-18T04:03:50;100206.19;;;10.99;100.00
5753;BME280;2901;42.140;24.760;2022-12-18T04:06:16;100207.03;;;10.94;100.00
5753;BME280;2901;42.140;24.760;2022-12-18T04:08:42;100217.34;;;10.90;100.00
5753;BME280;2901;42.140;24.760;2022-12-18T04:11:08;100216.53;;;10.89;100.00
5753;BME280;2901;42.140;24.760;2022-12-18T04:13:36;100212.16;;;10.84;100.00
5753;BME280;2901;42.140;24.760;2022-12-18T04:16:02;100207.84;;;10.84;100.00
5753;BME280;2901;42.140;24.760;2022-12-18T04:18:28;100213.00;;;10.78;100.00
5753;BME280;2901;42.140;24.760;2022-12-18T04:20:53;100210.41;;;10.77;100.00
5753;BME280;2901;42.140;24.760;2022-12-18T04:23:18;100213.88;;;10.76;100.00
5753;BME280;2901;42.140;24.760;2022-12-18T04:25:44;100213.03;;;10.80;100.00
5753;BME280;2901;42.140;24.760;2022-12-18T04:28:10;100222.50;;;10.78;100.00
5753;BME280;2901;42.140;24.760;2022-12-18T04:30:35;100230.25;;;10.72;100.00
5753;BME280;2901;42.140;24.760;2022-12-18T04:33:01;100230.22;;;10.66;100.00
5753;BME280;2901;42.140;24.760;2022-12-18T04:35:26;100230.19;;;10.58;100.00
5753;BME280;2901;42.140;24.760;2022-12-18T04:37:51;100231.91;;;10.58;100.00
5753;BME280;2901;42.140;24.760;2022-12-18T04:40:17;100229.28;;;10.50;100.00
5753;BME280;2901;42.140;24.760;2022-12-18T04:42:42;100235.28;;;10.48;100.00
5753;BME280;2901;42.140;24.760;2022-12-18T04:45:08;100229.22;;;10.44;100.00
5753;BME280;2901;42.140;24.760;2022-12-18T04:47:33;100245.66;;;10.43;100.00
5753;BME280;2901;42.140;24.760;2022-12-18T04:49:59;100251.63;;;10.37;100.00
5753;BME280;2901;42.140;24.760;2022-12-18T04:52:24;100256.75;;;10.28;100.00
5753;BME280;2901;42.140;24.760;2022-12-18T04:54:49;100270.59;;;10.30;100.00
5753;BME280;2901;42.140;24.760;2022-12-18T04:57:15;100274.81;;;10.21;100.00
5753;BME280;2901;42.140;24.760;2022-12-18T04:59:40;100273.91;;;10.14;100.00
5753;BME280;2901;42.140;24.760;2022-12-18T05:02:06;100279.06;;;10.14;100.00
5753;BME280;2901;42.140;24.760;2022-12-18T05:04:31;100276.41;;;10.07;100.00
5753;BME280;2901;42.140;24.760;2022-12-18T05:06:57;100289.34;;;10.08;100.00
5753;BME280;2901;42.140;24.760;2022-12-18T05:09:23;100303.13;;;10.04;100.00
5753;BME280;2901;42.140;24.760;2022-12-18T05:11:48;100287.63;;;10.04;100.00
5753;BME280;2901;42.140;24.760;2022-12-18T05:14:14;100298.81;;;10.05;100.00
5753;BME280;2901;42.140;24.760;2022-12-18T05:16:39;100295.31;;;10.00;100.00
5753;BME280;2901;42.140;24.760;2022-12-18T05:19:04;100299.56;;;9.93;100.00
5753;BME280;2901;42.140;24.760;2022-12-18T05:21:30;100312.56;;;9.98;100.00
5753;BME280;2901;42.140;24.760;2022-12-18T05:23:55;100316.00;;;9.97;100.00
5753;BME280;2901;42.140;24.760;2022-12-18T05:26:20;100308.22;;;9.98;100.00
5753;BME280;2901;42.140;24.760;2022-12-18T05:28:46;100318.59;;;9.98;100.00
5753;BME280;2901;42.140;24.760;2022-12-18T05:31:11;100326.38;;;10.01;100.00
5753;BME280;2901;42.140;24.760;2022-12-18T05:33:37;100333.25;;;9.98;100.00
5753;BME280;2901;42.140;24.760;2022-12-18T05:36:05;100330.69;;;10.02;100.00
5753;BME280;2901;42.140;24.760;2022-12-18T05:38:32;100346.28;;;10.08;100.00
5753;BME280;2901;42.140;24.760;2022-12-18T05:40:58;100349.72;;;10.06;100.00
5753;BME280;2901;42.140;24.760;2022-12-18T05:43:27;100338.50;;;10.05;100.00
5753;BME280;2901;42.140;24.760;2022-12-18T05:45:53;100352.31;;;10.09;100.00
5753;BME280;2901;42.140;24.760;2022-12-18T05:48:19;100356.56;;;10.02;100.00
5753;BME280;2901;42.140;24.760;2022-12-18T05:50:47;100352.25;;;10.00;100.00
5753;BME280;2901;42.140;24.760;2022-12-18T05:53:17;100365.28;;;10.10;100.00
5753;BME280;2901;42.140;24.760;2022-12-18T05:55:43;100366.16;;;10.12;100.00
5753;BME280;2901;42.140;24.760;2022-12-18T05:58:10;100373.94;;;10.11;100.00
5753;BME280;2901;42.140;24.760;2022-12-18T06:00:38;100377.31;;;10.08;100.00
5753;BME280;2901;42.140;24.760;2022-12-18T06:03:08;100378.19;;;10.04;100.00
5753;BME280;2901;42.140;24.760;2022-12-18T06:05:39;100385.97;;;10.07;100.00
5753;BME280;2901;42.140;24.760;2022-12-18T06:08:04;100378.22;;;10.10;100.00
5753;BME280;2901;42.140;24.760;2022-12-18T06:10:30;100386.94;;;10.14;100.00
5753;BME280;2901;42.140;24.760;2022-12-18T06:12:56;100387.75;;;10.14;100.00
5753;BME280;2901;42.140;24.760;2022-12-18T06:15:21;100390.34;;;10.14;100.00
5753;BME280;2901;42.140;24.760;2022-12-18T06:17:47;100395.59;;;10.19;100.00
5753;BME280;2901;42.140;24.760;2022-12-18T06:20:12;100394.75;;;10.21;100.00
5753;BME280;2901;42.140;24.760;2022-12-18T06:22:37;100393.94;;;10.24;100.00
5753;BME280;2901;42.140;24.760;2022-12-18T06:25:04;100403.41;;;10.25;100.00
5753;BME280;2901;42.140;24.760;2022-12-18T06:27:29;100414.66;;;10.27;100.00
5753;BME280;2901;42.140;24.760;2022-12-18T06:29:54;100417.28;;;10.30;100.00
5753;BME280;2901;42.140;24.760;2022-12-18T06:32:20;100411.22;;;10.29;100.00
5753;BME280;2901;42.140;24.760;2022-12-18T06:34:45;100425.97;;;10.36;100.00
5753;BME280;2901;42.140;24.760;2022-12-18T06:37:11;100418.22;;;10.39;100.00
5753;BME280;2901;42.140;24.760;2022-12-18T06:39:36;100438.13;;;10.44;100.00
5753;BME280;2901;42.140;24.760;2022-12-18T06:42:03;100434.69;;;10.48;100.00
5753;BME280;2901;42.140;24.760;2022-12-18T06:44:28;100438.13;;;10.44;100.00
5753;BME280;2901;42.140;24.760;2022-12-18T06:46:53;100438.09;;;10.42;100.00
5753;BME280;2901;42.140;24.760;2022-12-18T06:49:19;100443.28;;;10.45;100.00
5753;BME280;2901;42.140;24.760;2022-12-18T06:51:44;100446.72;;;10.44;100.00
5753;BME280;2901;42.140;24.760;2022-12-18T06:54:09;100463.16;;;10.48;100.00
5753;BME280;2901;42.140;24.760;2022-12-18T06:56:35;100436.28;;;10.30;100.00
5753;BME280;2901;42.140;24.760;2022-12-18T06:59:00;100457.06;;;10.39;100.00
5753;BME280;2901;42.140;24.760;2022-12-18T07:01:26;100451.81;;;10.35;100.00
5753;BME280;2901;42.140;24.760;2022-12-18T07:03:53;100472.59;;;10.39;100.00
5753;BME280;2901;42.140;24.760;2022-12-18T07:06:20;100450.09;;;10.35;100.00
5753;BME280;2901;42.140;24.760;2022-12-18T07:08:47;100468.22;;;10.34;100.00
5753;BME280;2901;42.140;24.760;2022-12-18T07:11:13;100471.69;;;10.36;100.00
5753;BME280;2901;42.140;24.760;2022-12-18T07:13:39;100469.91;;;10.30;100.00
5753;BME280;2901;42.140;24.760;2022-12-18T07:16:10;100472.50;;;10.30;100.00
5753;BME280;2901;42.140;24.760;2022-12-18T07:18:36;100484.63;;;10.36;100.00
5753;BME280;2901;42.140;24.760;2022-12-18T07:21:10;100479.47;;;10.36;100.00
5753;BME280;2901;42.140;24.760;2022-12-18T07:23:36;100483.72;;;10.32;100.00
5753;BME280;2901;42.140;24.760;2022-12-18T07:26:09;100478.53;;;10.31;100.00
5753;BME280;2901;42.140;24.760;2022-12-18T07:28:36;100501.84;;;10.32;100.00
5753;BME280;2901;42.140;24.760;2022-12-18T07:31:21;100490.69;;;10.36;100.00
5753;BME280;2901;42.140;24.760;2022-12-18T07:33:47;100498.44;;;10.33;100.00
5753;BME280;2901;42.140;24.760;2022-12-18T07:36:13;100496.69;;;10.32;100.00
5753;BME280;2901;42.140;24.760;2022-12-18T07:38:39;100497.53;;;10.31;100.00
5753;BME280;2901;42.140;24.760;2022-12-18T07:41:10;100502.75;;;10.36;100.00
5753;BME280;2901;42.140;24.760;2022-12-18T07:43:37;100504.44;;;10.32;100.00
5753;BME280;2901;42.140;24.760;2022-12-18T07:46:03;100515.69;;;10.33;100.00
5753;BME280;2901;42.140;24.760;2022-12-18T07:48:29;100514.03;;;10.39;100.00
5753;BME280;2901;42.140;24.760;2022-12-18T07:51:04;100510.53;;;10.36;100.00
5753;BME280;2901;42.140;24.760;2022-12-18T07:53:30;100515.78;;;10.44;100.00
5753;BME280;2901;42.140;24.760;2022-12-18T07:56:01;100527.91;;;10.51;100.00
5753;BME280;2901;42.140;24.760;2022-12-18T07:58:27;100521.88;;;10.49;100.00
5753;BME280;2901;42.140;24.760;2022-12-18T08:00:53;100530.44;;;10.45;100.00
5753;BME280;2901;42.140;24.760;2022-12-18T08:03:19;100542.53;;;10.44;100.00
5753;BME280;2901;42.140;24.760;2022-12-18T08:05:44;100554.66;;;10.47;100.00
5753;BME280;2901;42.140;24.760;2022-12-18T08:08:10;100543.44;;;10.46;100.00
5753;BME280;2901;42.140;24.760;2022-12-18T08:10:35;100565.03;;;10.48;100.00
5753;BME280;2901;42.140;24.760;2022-12-18T08:13:01;100554.66;;;10.47;100.00
5753;BME280;2901;42.140;24.760;2022-12-18T08:15:26;100554.72;;;10.54;100.00
5753;BME280;2901;42.140;24.760;2022-12-18T08:17:51;100553.91;;;10.57;100.00
5753;BME280;2901;42.140;24.760;2022-12-18T08:20:17;100552.25;;;10.63;100.00
5753;BME280;2901;42.140;24.760;2022-12-18T08:22:43;100559.19;;;10.66;100.00
5753;BME280;2901;42.140;24.760;2022-12-18T08:25:09;100566.09;;;10.67;100.00
5753;BME280;2901;42.140;24.760;2022-12-18T08:27:36;100569.53;;;10.66;100.00
5753;BME280;2901;42.140;24.760;2022-12-18T08:30:03;100575.59;;;10.66;100.00
5753;BME280;2901;42.140;24.760;2022-12-18T08:32:29;100566.09;;;10.67;100.00
5753;BME280;2901;42.140;24.760;2022-12-18T08:34:54;100575.56;;;10.65;100.00
5753;BME280;2901;42.140;24.760;2022-12-18T08:37:19;100570.44;;;10.71;100.00
5753;BME280;2901;42.140;24.760;2022-12-18T08:39:45;100567.84;;;10.71;100.00
5753;BME280;2901;42.140;24.760;2022-12-18T08:42:10;100571.38;;;10.76;100.00
5753;BME280;2901;42.140;24.760;2022-12-18T08:44:54;100561.00;;;10.76;100.00
5753;BME280;2901;42.140;24.760;2022-12-18T08:47:20;100565.41;;;10.84;100.00
5753;BME280;2901;42.140;24.760;2022-12-18T08:49:45;100569.75;;;10.90;100.00
5753;BME280;2901;42.140;24.760;2022-12-18T08:52:17;100567.16;;;10.87;100.00
5753;BME280;2901;42.140;24.760;2022-12-18T08:54:42;100556.75;;;10.84;100.00
5753;BME280;2901;42.140;24.760;2022-12-18T08:57:08;100550.78;;;10.89;100.00
5753;BME280;2901;42.140;24.760;2022-12-18T08:59:33;100559.38;;;10.85;100.00
5753;BME280;2901;42.140;24.760;2022-12-18T09:01:59;100561.19;;;10.97;100.00
5753;BME280;2901;42.140;24.760;2022-12-18T09:04:24;100547.38;;;10.98;100.00
5753;BME280;2901;42.140;24.760;2022-12-18T09:06:49;100551.78;;;11.07;100.00
5753;BME280;2901;42.140;24.760;2022-12-18T09:09:15;100558.72;;;11.11;100.00
5753;BME280;2901;42.140;24.760;2022-12-18T09:11:40;100561.38;;;11.15;100.00
5753;BME280;2901;42.140;24.760;2022-12-18T09:14:06;100562.19;;;11.11;100.00
5753;BME280;2901;42.140;24.760;2022-12-18T09:16:32;100566.47;;;11.06;100.00
5753;BME280;2901;42.140;24.760;2022-12-18T09:19:00;100557.75;;;10.98;100.00
5753;BME280;2901;42.140;24.760;2022-12-18T09:21:28;100555.19;;;11.01;100.00
5753;BME280;2901;42.140;24.760;2022-12-18T09:23:55;100557.78;;;11.01;100.00
5753;BME280;2901;42.140;24.760;2022-12-18T09:26:25;100542.97;;;10.88;100.00
5753;BME280;2901;42.140;24.760;2022-12-18T09:28:50;100566.31;;;10.91;100.00
5753;BME280;2901;42.140;24.760;2022-12-18T09:31:18;100561.13;;;10.88;100.00
5753;BME280;2901;42.140;24.760;2022-12-18T09:33:44;100551.63;;;10.88;100.00
5753;BME280;2901;42.140;24.760;2022-12-18T09:36:12;100554.22;;;10.90;100.00
5753;BME280;2901;42.140;24.760;2022-12-18T09:38:38;100563.72;;;10.91;100.00
5753;BME280;2901;42.140;24.760;2022-12-18T09:44:32;100547.34;;;10.92;100.00
5753;BME280;2901;42.140;24.760;2022-12-18T09:47:11;100554.28;;;10.96;100.00
5753;BME280;2901;42.140;24.760;2022-12-18T09:49:46;100540.38;;;10.85;100.00
5753;BME280;2901;42.140;24.760;2022-12-18T09:52:17;100547.34;;;10.92;100.00
5753;BME280;2901;42.140;24.760;2022-12-18T09:54:53;100558.59;;;10.96;100.00
5753;BME280;2901;42.140;24.760;2022-12-18T09:57:23;100558.56;;;10.94;100.00
5753;BME280;2901;42.140;24.760;2022-12-18T09:59:59;100555.97;;;10.94;100.00
5753;BME280;2901;42.140;24.760;2022-12-18T10:02:30;100564.66;;;10.98;100.00
5753;BME280;2901;42.140;24.760;2022-12-18T10:07:50;100565.56;;;11.00;100.00
5753;BME280;2901;42.140;24.760;2022-12-18T10:16:03;100554.41;;;11.11;100.00
5753;BME280;2901;42.140;24.760;2022-12-18T10:21:21;100554.44;;;11.13;100.00
5753;BME280;2901;42.140;24.760;2022-12-18T10:23:59;100558.75;;;11.12;100.00
5753;BME280;2901;42.140;24.760;2022-12-18T10:26:28;100562.22;;;11.17;100.00
5753;BME280;2901;42.140;24.760;2022-12-18T10:28:53;100560.50;;;11.18;100.00
5753;BME280;2901;42.140;24.760;2022-12-18T10:31:23;100557.94;;;11.19;100.00
5753;BME280;2901;42.140;24.760;2022-12-18T10:33:48;100553.56;;;11.14;100.00
5753;BME280;2901;42.140;24.760;2022-12-18T10:36:14;100563.00;;;11.07;100.00
5753;BME280;2901;42.140;24.760;2022-12-18T10:38:40;100561.31;;;11.06;99.93
5753;BME280;2901;42.140;24.760;2022-12-18T10:41:23;100560.41;;;11.04;100.00
5753;BME280;2901;42.140;24.760;2022-12-18T10:46:36;100568.19;;;11.07;100.00
5753;BME280;2901;42.140;24.760;2022-12-18T10:49:01;100575.09;;;11.05;99.93
5753;BME280;2901;42.140;24.760;2022-12-18T10:51:34;100579.41;;;11.05;99.91
5753;BME280;2901;42.140;24.760;2022-12-18T10:56:29;100577.59;;;10.93;100.00
5753;BME280;2901;42.140;24.760;2022-12-18T10:59:07;100587.16;;;11.02;100.00
5753;BME280;2901;42.140;24.760;2022-12-18T11:01:56;100579.28;;;10.89;100.00
5753;BME280;2901;42.140;24.760;2022-12-18T11:04:26;100592.25;;;10.94;100.00
5753;BME280;2901;42.140;24.760;2022-12-18T11:07:01;100611.16;;;10.84;100.00
5753;BME280;2901;42.140;24.760;2022-12-18T11:09:35;100605.06;;;10.76;100.00
5753;BME280;2901;42.140;24.760;2022-12-18T11:12:04;100611.88;;;10.66;100.00
5753;BME280;2901;42.140;24.760;2022-12-18T11:14:51;100599.66;;;10.58;100.00
5753;BME280;2901;42.140;24.760;2022-12-18T11:17:24;100613.44;;;10.55;100.00
5753;BME280;2901;42.140;24.760;2022-12-18T11:20:01;100612.44;;;10.44;100.00
5753;BME280;2901;42.140;24.760;2022-12-18T11:22:29;100616.69;;;10.36;100.00
5753;BME280;2901;42.140;24.760;2022-12-18T11:25:02;100613.06;;;10.25;100.00
5753;BME280;2901;42.140;24.760;2022-12-18T11:27:31;100615.59;;;10.19;100.00
5753;BME280;2901;42.140;24.760;2022-12-18T11:30:20;100623.28;;;10.14;100.00
5753;BME280;2901;42.140;24.760;2022-12-18T11:32:49;100599.94;;;10.13;100.00
5753;BME280;2901;42.140;24.760;2022-12-18T11:35:21;100610.22;;;10.08;100.00
5753;BME280;2901;42.140;24.760;2022-12-18T11:38:04;100617.19;;;10.12;100.00
5753;BME280;2901;42.140;24.760;2022-12-18T11:40:35;100612.81;;;10.08;100.00
5753;BME280;2901;42.140;24.760;2022-12-18T11:43:10;100614.53;;;10.08;100.00
5753;BME280;2901;42.140;24.760;2022-12-18T11:46:06;100618.03;;;10.10;100.00
5753;BME280;2901;42.140;24.760;2022-12-18T11:48:37;100624.97;;;10.11;100.00
5753;BME280;2901;42.140;24.760;2022-12-18T11:51:05;100622.47;;;10.18;100.00
5753;BME280;2901;42.140;24.760;2022-12-18T11:53:35;100624.22;;;10.21;100.00
5753;BME280;2901;42.140;24.760;2022-12-18T11:59:06;100613.00;;;10.17;100.00
5753;BME280;2901;42.140;24.760;2022-12-18T12:21:40;100627.28;;;10.56;100.00
5753;BME280;2901;42.140;24.760;2022-12-18T12:27:10;100628.13;;;10.53;100.00
5753;BME280;2901;42.140;24.760;2022-12-18T12:30:08;100633.25;;;10.52;99.81
5753;BME280;2901;42.140;24.760;2022-12-18T12:35:34;100635.66;;;10.35;99.30
5753;BME280;2901;42.140;24.760;2022-12-18T12:41:05;100652.88;;;10.33;99.46
5753;BME280;2901;42.140;24.760;2022-12-18T12:43:52;100649.38;;;10.29;99.24
5753;BME280;2901;42.140;24.760;2022-12-18T12:46:21;100665.88;;;10.36;99.26
5753;BME280;2901;42.140;24.760;2022-12-18T12:48:50;100658.06;;;10.34;98.95
5753;BME280;2901;42.140;24.760;2022-12-18T12:53:43;100672.69;;;10.29;97.06
5753;BME280;2901;42.140;24.760;2022-12-18T12:56:11;100672.66;;;10.26;96.88
5753;BME280;2901;42.140;24.760;2022-12-18T12:58:58;100672.59;;;10.23;97.41
5753;BME280;2901;42.140;24.760;2022-12-18T13:09:22;100698.53;;;10.26;97.98
5753;BME280;2901;42.140;24.760;2022-12-18T13:11:47;100700.25;;;10.27;98.31
5753;BME280;2901;42.140;24.760;2022-12-18T13:14:34;100701.13;;;10.28;98.23
5753;BME280;2901;42.140;24.760;2022-12-18T13:17:28;100704.66;;;10.33;98.01
5753;BME280;2901;42.140;24.760;2022-12-18T13:20:14;100715.03;;;10.34;97.92
5753;BME280;2901;42.140;24.760;2022-12-18T13:22:44;100709.94;;;10.39;97.33
5753;BME280;2901;42.140;24.760;2022-12-18T13:25:37;100716.91;;;10.45;96.80
5753;BME280;2901;42.140;24.760;2022-12-18T13:38:21;100716.94;;;10.46;96.58
5753;BME280;2901;42.140;24.760;2022-12-18T13:46:18;100724.75;;;10.51;97.48
5753;BME280;2901;42.140;24.760;2022-12-18T13:49:06;100730.78;;;10.50;99.30
5753;BME280;2901;42.140;24.760;2022-12-18T13:51:48;100735.97;;;10.50;100.00
5753;BME280;2901;42.140;24.760;2022-12-18T13:54:34;100727.38;;;10.52;100.00
5753;BME280;2901;42.140;24.760;2022-12-18T13:57:00;100730.84;;;10.53;100.00
5753;BME280;2901;42.140;24.760;2022-12-18T13:59:39;100743.03;;;10.61;100.00
5753;BME280;2901;42.140;24.760;2022-12-18T14:02:21;100748.31;;;10.70;100.00
5753;BME280;2901;42.140;24.760;2022-12-18T14:04:48;100750.94;;;10.72;100.00
5753;BME280;2901;42.140;24.760;2022-12-18T14:07:17;100756.22;;;10.81;100.00
5753;BME280;2901;42.140;24.760;2022-12-18T14:09:46;100758.03;;;10.85;100.00
5753;BME280;2901;42.140;24.760;2022-12-18T14:12:31;100769.16;;;10.78;100.00
5753;BME280;2901;42.140;24.760;2022-12-18T14:15:34;100773.34;;;10.68;100.00
5753;BME280;2901;42.140;24.760;2022-12-18T14:20:34;100776.78;;;10.66;100.00
5753;BME280;2901;42.140;24.760;2022-12-18T14:22:59;100780.84;;;10.47;100.00
5753;BME280;2901;42.140;24.760;2022-12-18T14:25:30;100779.72;;;10.31;100.00
5753;BME280;2901;42.140;24.760;2022-12-18T14:30:40;100796.41;;;9.98;100.00
5753;BME280;2901;42.140;24.760;2022-12-18T14:35:37;100802.22;;;9.84;100.00
5753;BME280;2901;42.140;24.760;2022-12-18T14:40:59;100805.53;;;9.77;100.00
5753;BME280;2901;42.140;24.760;2022-12-18T14:43:30;100802.09;;;9.77;100.00
5753;BME280;2901;42.140;24.760;2022-12-18T14:45:57;100812.59;;;9.86;100.00
5753;BME280;2901;42.140;24.760;2022-12-18T14:48:37;100804.81;;;9.86;100.00
5753;BME280;2901;42.140;24.760;2022-12-18T14:51:14;100815.22;;;9.87;100.00